createdAt,value
2018-12-22T00:00:28.871Z,9.57
2018-12-22T00:02:58.139Z,9.56
2018-12-22T00:05:26.472Z,9.56
2018-12-22T00:07:54.765Z,9.60
2018-12-22T00:10:23.088Z,9.63
2018-12-22T00:12:51.408Z,9.58
2018-12-22T00:15:19.735Z,9.60
2018-12-22T00:17:48.179Z,9.58
2018-12-22T00:20:16.600Z,9.59
2018-12-22T00:22:45.031Z,9.57
2018-12-22T00:25:13.445Z,9.57
2018-12-22T00:27:41.799Z,9.59
2018-12-22T00:30:10.311Z,9.58
2018-12-22T00:32:38.638Z,9.60
2018-12-22T00:35:07.050Z,9.58
2018-12-22T00:37:35.423Z,9.60
2018-12-22T00:40:03.937Z,9.58
2018-12-22T00:42:32.373Z,9.59
2018-12-22T00:45:01.633Z,9.66
2018-12-22T00:47:29.992Z,9.67
2018-12-22T00:49:58.327Z,9.64
2018-12-22T00:52:26.753Z,9.63
2018-12-22T00:54:55.161Z,9.62
2018-12-22T00:57:23.519Z,9.60
2018-12-22T00:59:51.897Z,9.62
2018-12-22T01:02:20.422Z,9.62
2018-12-22T01:04:48.729Z,9.59
2018-12-22T01:07:17.064Z,9.56
2018-12-22T01:09:45.425Z,9.61
2018-12-22T01:12:13.753Z,9.54
2018-12-22T01:14:42.149Z,9.55
2018-12-22T01:17:10.577Z,9.56
2018-12-22T01:19:38.908Z,9.57
2018-12-22T01:22:07.328Z,9.57
2018-12-22T01:24:35.681Z,9.60
2018-12-22T01:27:04.119Z,9.60
2018-12-22T01:29:32.448Z,9.62
2018-12-22T01:32:00.789Z,9.64
2018-12-22T01:34:29.107Z,9.63
2018-12-22T01:36:57.465Z,9.65
2018-12-22T01:39:25.814Z,9.68
2018-12-22T01:41:54.148Z,9.67
2018-12-22T01:44:22.473Z,9.67
2018-12-22T01:46:50.917Z,9.69
2018-12-22T01:49:19.249Z,9.69
2018-12-22T01:51:47.706Z,9.72
2018-12-22T01:54:16.097Z,9.75
2018-12-22T01:56:44.545Z,9.76
2018-12-22T01:59:12.987Z,9.76
2018-12-22T02:01:41.329Z,9.74
2018-12-22T02:04:09.691Z,9.77
2018-12-22T02:06:38.107Z,9.78
2018-12-22T02:09:07.852Z,9.79
2018-12-22T02:11:36.147Z,9.75
2018-12-22T02:14:04.638Z,9.72
2018-12-22T02:16:32.973Z,9.75
2018-12-22T02:19:01.366Z,9.78
2018-12-22T02:21:29.692Z,9.74
2018-12-22T02:23:58.132Z,9.73
2018-12-22T02:26:26.452Z,9.73
2018-12-22T02:28:56.868Z,9.70
2018-12-22T02:31:25.097Z,9.69
2018-12-22T02:33:53.439Z,9.63
2018-12-22T02:36:21.741Z,9.62
2018-12-22T02:38:50.166Z,9.62
2018-12-22T02:41:18.518Z,9.63
2018-12-22T02:43:47.102Z,9.63
2018-12-22T02:46:15.463Z,9.65
2018-12-22T02:48:43.830Z,9.65
2018-12-22T02:51:12.232Z,9.64
2018-12-22T02:53:40.624Z,9.65
2018-12-22T02:56:09.079Z,9.63
2018-12-22T02:58:37.410Z,9.64
2018-12-22T03:01:05.839Z,9.60
2018-12-22T03:03:34.814Z,9.60
2018-12-22T03:06:03.315Z,9.60
2018-12-22T03:08:31.743Z,9.65
2018-12-22T03:11:00.085Z,9.64
2018-12-22T03:13:28.433Z,9.60
2018-12-22T03:15:56.765Z,9.55
2018-12-22T03:18:25.124Z,9.56
2018-12-22T03:20:53.595Z,9.57
2018-12-22T03:23:22.030Z,9.58
2018-12-22T03:25:50.501Z,9.59
2018-12-22T03:28:18.847Z,9.63
2018-12-22T03:30:47.164Z,9.58
2018-12-22T03:33:15.527Z,9.59
2018-12-22T03:35:43.976Z,9.61
2018-12-22T03:38:12.417Z,9.56
2018-12-22T03:40:40.757Z,9.57
2018-12-22T03:43:09.137Z,9.60
2018-12-22T03:45:37.496Z,9.60
2018-12-22T03:48:05.944Z,9.61
2018-12-22T03:50:34.346Z,9.60
2018-12-22T03:53:02.798Z,9.59
2018-12-22T03:55:31.146Z,9.60
2018-12-22T03:57:59.444Z,9.60
2018-12-22T04:00:27.879Z,9.62
2018-12-22T04:02:56.216Z,9.60
2018-12-22T04:05:24.527Z,9.61
2018-12-22T04:07:52.869Z,9.62
2018-12-22T04:10:21.235Z,9.67
2018-12-22T04:12:49.557Z,9.67
2018-12-22T04:15:18.029Z,9.67
2018-12-22T04:17:46.353Z,9.69
2018-12-22T04:20:14.700Z,9.72
2018-12-22T04:22:43.075Z,9.73
2018-12-22T04:25:11.412Z,9.75
2018-12-22T04:27:39.729Z,9.73
2018-12-22T04:30:08.244Z,9.73
2018-12-22T04:32:36.576Z,9.70
2018-12-22T04:35:05.188Z,9.68
2018-12-22T04:37:33.509Z,9.67
2018-12-22T04:40:01.922Z,9.69
2018-12-22T04:42:30.225Z,9.70
2018-12-22T04:44:58.599Z,9.68
2018-12-22T04:47:27.167Z,9.66
2018-12-22T04:49:55.501Z,9.63
2018-12-22T04:52:23.909Z,9.62
2018-12-22T04:54:52.224Z,9.58
2018-12-22T04:57:20.513Z,9.56
2018-12-22T04:59:48.967Z,9.52
2018-12-22T05:02:17.399Z,9.53
2018-12-22T05:04:45.803Z,9.54
2018-12-22T05:07:14.120Z,9.54
2018-12-22T05:09:42.509Z,9.51
2018-12-22T05:12:10.839Z,9.52
2018-12-22T05:14:39.160Z,9.51
2018-12-22T05:17:07.592Z,9.49
2018-12-22T05:19:35.992Z,9.45
2018-12-22T05:22:04.479Z,9.45
2018-12-22T05:24:32.791Z,9.48
2018-12-22T05:27:01.266Z,9.47
2018-12-22T05:29:29.585Z,9.43
2018-12-22T05:31:57.909Z,9.44
2018-12-22T05:34:26.310Z,9.43
2018-12-22T05:36:54.701Z,9.46
2018-12-22T05:39:23.047Z,9.43
2018-12-22T05:41:51.407Z,9.45
2018-12-22T05:44:19.730Z,9.45
2018-12-22T05:46:48.200Z,9.47
2018-12-22T05:49:16.533Z,9.44
2018-12-22T05:51:44.942Z,9.41
2018-12-22T05:54:13.265Z,9.41
2018-12-22T05:56:41.649Z,9.43
2018-12-22T05:59:10.786Z,9.38
2018-12-22T06:01:39.121Z,9.36
2018-12-22T06:04:07.485Z,9.38
2018-12-22T06:06:35.833Z,9.37
2018-12-22T06:09:06.189Z,9.38
2018-12-22T06:11:34.977Z,9.39
2018-12-22T06:14:03.558Z,9.37
2018-12-22T06:16:31.887Z,9.38
2018-12-22T06:19:00.248Z,9.36
2018-12-22T06:21:28.546Z,9.31
2018-12-22T06:23:56.865Z,9.32
2018-12-22T06:26:25.167Z,9.29
2018-12-22T06:28:53.496Z,9.28
2018-12-22T06:31:21.832Z,9.33
2018-12-22T06:33:50.136Z,9.31
2018-12-22T06:36:18.642Z,9.34
2018-12-22T06:38:47.077Z,9.31
2018-12-22T06:41:15.378Z,9.24
2018-12-22T06:43:43.721Z,9.27
2018-12-22T06:46:12.049Z,9.24
2018-12-22T06:48:40.369Z,9.23
2018-12-22T06:51:08.777Z,9.22
2018-12-22T06:53:37.201Z,9.20
2018-12-22T06:56:05.511Z,9.19
2018-12-22T06:58:33.870Z,9.19
2018-12-22T07:01:02.257Z,9.18
2018-12-22T07:03:30.558Z,9.16
2018-12-22T07:05:58.853Z,9.13
2018-12-22T07:08:27.286Z,9.13
2018-12-22T07:10:55.595Z,9.12
2018-12-22T07:13:23.936Z,9.15
2018-12-22T07:15:52.319Z,9.17
2018-12-22T07:18:20.615Z,9.15
2018-12-22T07:20:49.064Z,9.17
2018-12-22T07:23:17.555Z,9.17
2018-12-22T07:25:45.955Z,9.11
2018-12-22T07:28:14.267Z,9.13
2018-12-22T07:30:42.581Z,9.17
2018-12-22T07:33:10.869Z,9.14
2018-12-22T07:35:39.271Z,9.12
2018-12-22T07:38:07.641Z,9.14
2018-12-22T07:40:36.101Z,9.17
2018-12-22T07:43:04.420Z,9.17
2018-12-22T07:45:32.713Z,9.20
2018-12-22T07:48:01.592Z,9.20
2018-12-22T07:50:29.915Z,9.20
2018-12-22T07:52:58.452Z,9.19
2018-12-22T07:55:26.817Z,9.21
2018-12-22T07:57:55.140Z,9.19
2018-12-22T08:00:23.524Z,9.23
2018-12-22T08:02:51.837Z,9.22
2018-12-22T08:05:20.142Z,9.24
2018-12-22T08:07:48.517Z,9.21
2018-12-22T08:10:16.995Z,9.23
2018-12-22T08:12:45.382Z,9.26
2018-12-22T08:15:13.707Z,9.27
2018-12-22T08:17:42.107Z,9.24
2018-12-22T08:20:10.492Z,9.26
2018-12-22T08:22:38.895Z,9.23
2018-12-22T08:25:07.441Z,9.24
2018-12-22T08:27:35.768Z,9.26
2018-12-22T08:32:38.257Z,9.27
2018-12-22T08:35:06.806Z,9.25
2018-12-22T08:37:35.602Z,9.29
2018-12-22T08:40:04.183Z,9.29
2018-12-22T08:42:32.584Z,9.31
2018-12-22T08:45:01.217Z,9.32
2018-12-22T08:47:29.524Z,9.32
2018-12-22T08:49:57.844Z,9.31
2018-12-22T08:52:26.172Z,9.31
2018-12-22T08:54:54.464Z,9.35
2018-12-22T08:57:23.037Z,9.37
2018-12-22T08:59:52.263Z,9.37
2018-12-22T09:02:20.661Z,9.41
2018-12-22T09:04:48.969Z,9.38
2018-12-22T09:07:17.374Z,9.42
2018-12-22T09:09:45.754Z,9.39
2018-12-22T09:12:15.058Z,9.41
2018-12-22T09:14:43.354Z,9.47
2018-12-22T09:17:11.634Z,9.49
2018-12-22T09:19:39.955Z,9.50
2018-12-22T09:22:08.240Z,9.51
2018-12-22T09:24:36.521Z,9.55
2018-12-22T09:27:05.016Z,9.58
2018-12-22T09:29:33.307Z,9.59
2018-12-22T09:32:01.661Z,9.63
2018-12-22T09:34:30.059Z,9.66
2018-12-22T09:36:58.356Z,9.69
2018-12-22T09:39:26.709Z,9.66
2018-12-22T09:41:55.015Z,9.72
2018-12-22T09:44:23.325Z,9.75
2018-12-22T09:46:51.613Z,9.80
2018-12-22T09:49:19.929Z,9.82
2018-12-22T09:51:48.212Z,9.84
2018-12-22T09:54:16.572Z,9.86
2018-12-22T09:56:44.944Z,9.86
2018-12-22T09:59:13.212Z,9.90
2018-12-22T10:01:41.623Z,9.97
2018-12-22T10:04:10.034Z,10.00
2018-12-22T10:06:38.397Z,10.03
2018-12-22T10:09:07.783Z,10.13
2018-12-22T10:11:36.157Z,10.25
2018-12-22T10:14:04.787Z,10.24
2018-12-22T10:16:33.195Z,10.32
2018-12-22T10:19:01.523Z,10.33
2018-12-22T10:21:29.824Z,10.29
2018-12-22T10:23:58.141Z,10.32
2018-12-22T10:26:26.456Z,10.28
2018-12-22T10:28:54.804Z,10.27
2018-12-22T10:31:23.208Z,10.32
2018-12-22T10:33:51.602Z,10.33
2018-12-22T10:36:19.896Z,10.33
2018-12-22T10:38:48.251Z,10.33
2018-12-22T10:41:16.712Z,10.29
2018-12-22T10:43:45.120Z,10.20
2018-12-22T10:46:13.443Z,10.25
2018-12-22T10:48:41.822Z,10.28
2018-12-22T10:51:10.143Z,10.27
2018-12-22T10:53:38.458Z,10.24
2018-12-22T10:56:06.899Z,10.25
2018-12-22T10:58:35.317Z,10.24
2018-12-22T11:01:03.803Z,10.26
2018-12-22T11:03:32.990Z,10.32
2018-12-22T11:06:01.430Z,10.31
2018-12-22T11:08:29.838Z,10.35
2018-12-22T11:10:58.259Z,10.31
2018-12-22T11:13:26.546Z,10.28
2018-12-22T11:15:54.952Z,10.39
2018-12-22T11:18:23.264Z,10.31
2018-12-22T11:20:51.572Z,10.37
2018-12-22T11:23:20.530Z,10.37
2018-12-22T11:25:49.349Z,10.39
2018-12-22T11:28:17.739Z,10.34
2018-12-22T11:30:46.152Z,10.30
2018-12-22T11:33:14.531Z,10.31
2018-12-22T11:35:42.841Z,10.29
2018-12-22T11:38:11.153Z,10.26
2018-12-22T11:40:39.565Z,10.24
2018-12-22T11:43:07.877Z,10.25
2018-12-22T11:45:36.231Z,10.27
2018-12-22T11:48:22.030Z,10.35
2018-12-22T11:50:51.287Z,10.36
2018-12-22T11:53:22.207Z,10.36
2018-12-22T11:55:50.530Z,10.34
2018-12-22T11:58:18.971Z,10.36
2018-12-22T12:00:47.312Z,10.40
2018-12-22T12:03:15.664Z,10.39
2018-12-22T12:05:43.997Z,10.36
2018-12-22T12:08:12.876Z,10.43
2018-12-22T12:10:41.213Z,10.47
2018-12-22T12:13:09.516Z,10.48
2018-12-22T12:15:44.025Z,10.43
2018-12-22T12:18:21.936Z,10.45
2018-12-22T12:20:51.532Z,10.49
2018-12-22T12:23:19.854Z,10.48
2018-12-22T12:25:49.306Z,10.44
2018-12-22T12:28:18.896Z,10.50
2018-12-22T12:30:47.211Z,10.52
2018-12-22T12:33:15.530Z,10.53
2018-12-22T12:35:43.898Z,10.49
2018-12-22T12:38:12.232Z,10.50
2018-12-22T12:40:40.552Z,10.44
2018-12-22T12:43:08.899Z,10.46
2018-12-22T12:45:37.209Z,10.46
2018-12-22T12:48:05.610Z,10.43
2018-12-22T12:50:34.048Z,10.43
2018-12-22T12:53:09.559Z,10.45
2018-12-22T12:55:32.781Z,10.51
2018-12-22T12:58:01.241Z,10.47
2018-12-22T13:00:29.604Z,10.44
2018-12-22T13:02:57.924Z,10.45
2018-12-22T13:05:26.756Z,10.40
2018-12-22T13:07:55.076Z,10.37
2018-12-22T13:10:23.491Z,10.36
2018-12-22T13:13:01.731Z,10.37
2018-12-22T13:15:30.050Z,10.39
2018-12-22T13:17:58.433Z,10.37
2018-12-22T13:20:27.244Z,10.37
2018-12-22T13:22:55.573Z,10.36
2018-12-22T13:25:24.062Z,10.36
2018-12-22T13:27:52.401Z,10.38
2018-12-22T13:30:23.872Z,10.35
2018-12-22T13:32:52.244Z,10.34
2018-12-22T13:35:20.666Z,10.35
2018-12-22T13:37:49.009Z,10.34
2018-12-22T13:40:17.305Z,10.37
2018-12-22T13:42:45.636Z,10.37
2018-12-22T13:45:14.013Z,10.38
2018-12-22T13:47:42.599Z,10.40
2018-12-22T13:50:11.707Z,10.37
2018-12-22T13:52:40.181Z,10.34
2018-12-22T13:55:08.672Z,10.37
2018-12-22T13:57:37.102Z,10.36
2018-12-22T14:00:09.672Z,10.37
2018-12-22T14:02:39.368Z,10.39
2018-12-22T14:05:10.293Z,10.41
2018-12-22T14:07:38.625Z,10.35
2018-12-22T14:10:09.596Z,10.33
2018-12-22T14:12:38.019Z,10.32
2018-12-22T14:15:09.868Z,10.29
2018-12-22T14:17:44.207Z,10.30
2018-12-22T14:20:15.969Z,10.32
2018-12-22T14:22:45.279Z,10.30
2018-12-22T14:25:20.069Z,10.27
2018-12-22T14:27:48.388Z,10.27
2018-12-22T14:30:17.788Z,10.25
2018-12-22T14:32:46.175Z,10.28
2018-12-22T14:35:25.169Z,10.27
2018-12-22T14:37:53.563Z,10.26
2018-12-22T14:40:22.850Z,10.16
2018-12-22T14:42:51.155Z,10.20
2018-12-22T14:45:19.474Z,10.18
2018-12-22T14:47:47.800Z,10.24
2018-12-22T14:50:16.209Z,10.24
2018-12-22T14:52:44.593Z,10.22
2018-12-22T14:55:13.163Z,10.20
2018-12-22T14:57:49.728Z,10.17
2018-12-22T15:00:18.959Z,10.17
2018-12-22T15:02:47.340Z,10.18
2018-12-22T15:05:15.732Z,10.15
2018-12-22T15:07:44.152Z,10.14
2018-12-22T15:10:12.532Z,10.12
2018-12-22T15:12:40.949Z,10.11
2018-12-22T15:15:10.008Z,10.15
2018-12-22T15:17:39.014Z,10.06
2018-12-22T15:20:11.283Z,10.06
2018-12-22T15:22:39.585Z,10.06
2018-12-22T15:25:09.129Z,10.06
2018-12-22T15:27:37.520Z,10.00
2018-12-22T15:30:08.143Z,10.00
2018-12-22T15:32:43.906Z,9.98
2018-12-22T15:35:07.187Z,9.99
2018-12-22T15:37:35.587Z,9.97
2018-12-22T15:40:06.373Z,9.97
2018-12-22T15:42:34.776Z,9.96
2018-12-22T15:45:03.245Z,9.94
2018-12-22T15:47:31.617Z,9.95
2018-12-22T15:49:59.996Z,9.90
2018-12-22T15:52:28.289Z,9.92
2018-12-22T15:54:56.573Z,9.92
2018-12-22T15:57:24.956Z,9.88
2018-12-22T15:59:53.400Z,9.90
2018-12-22T16:02:21.688Z,9.89
2018-12-22T16:04:49.991Z,9.86
2018-12-22T16:07:18.316Z,9.90
2018-12-22T16:09:46.610Z,9.88
2018-12-22T16:12:15.005Z,9.90
2018-12-22T16:14:43.385Z,9.85
2018-12-22T16:17:11.681Z,9.84
2018-12-22T16:19:39.991Z,9.84
2018-12-22T16:22:08.297Z,9.80
2018-12-22T16:24:36.653Z,9.73
2018-12-22T16:27:05.121Z,9.74
2018-12-22T16:29:38.781Z,9.70
2018-12-22T16:32:07.295Z,9.74
2018-12-22T16:34:35.665Z,9.70
2018-12-22T16:37:04.163Z,9.67
2018-12-22T16:39:32.548Z,9.71
2018-12-22T16:42:00.894Z,9.70
2018-12-22T16:44:29.212Z,9.61
2018-12-22T16:46:57.615Z,9.59
2018-12-22T16:49:25.909Z,9.64
2018-12-22T16:51:54.300Z,9.62
2018-12-22T16:54:22.606Z,9.61
2018-12-22T16:56:50.928Z,9.62
2018-12-22T16:59:19.321Z,9.59
2018-12-22T17:01:57.663Z,9.57
2018-12-22T17:04:25.947Z,9.57
2018-12-22T17:06:54.255Z,9.55
2018-12-22T17:09:23.399Z,9.53
2018-12-22T17:11:51.800Z,9.55
2018-12-22T17:14:20.102Z,9.51
2018-12-22T17:16:48.509Z,9.50
2018-12-22T17:19:16.803Z,9.47
2018-12-22T17:22:08.367Z,9.47
2018-12-22T17:24:49.752Z,9.47
2018-12-22T17:27:18.491Z,9.46
2018-12-22T17:29:46.795Z,9.42
2018-12-22T17:32:15.259Z,9.42
2018-12-22T17:34:43.851Z,9.45
2018-12-22T17:37:13.378Z,9.44
2018-12-22T17:39:41.676Z,9.47
2018-12-22T17:42:10.063Z,9.46
2018-12-22T17:44:38.379Z,9.47
2018-12-22T17:47:06.788Z,9.44
2018-12-22T17:49:35.293Z,9.45
2018-12-22T17:52:03.670Z,9.46
2018-12-22T17:54:32.067Z,9.44
2018-12-22T17:57:00.571Z,9.47
2018-12-22T17:59:28.938Z,9.42
2018-12-22T18:01:57.344Z,9.42
2018-12-22T18:04:25.642Z,9.41
2018-12-22T18:06:53.947Z,9.43
2018-12-22T18:09:22.517Z,9.43
2018-12-22T18:11:50.885Z,9.41
2018-12-22T18:14:19.185Z,9.40
2018-12-22T18:16:47.561Z,9.39
2018-12-22T18:19:16.530Z,9.39
2018-12-22T18:21:44.828Z,9.39
2018-12-22T18:24:13.132Z,9.35
2018-12-22T18:26:41.653Z,9.32
2018-12-22T18:29:10.025Z,9.33
2018-12-22T18:31:38.405Z,9.32
2018-12-22T18:34:06.726Z,9.33
2018-12-22T18:36:35.116Z,9.31
2018-12-22T18:39:04.701Z,9.30
2018-12-22T18:41:33.025Z,9.33
2018-12-22T18:44:01.532Z,9.34
2018-12-22T18:46:29.836Z,9.34
2018-12-22T18:48:58.705Z,9.30
2018-12-22T18:51:26.992Z,9.27
2018-12-22T18:53:55.268Z,9.30
2018-12-22T18:56:23.585Z,9.30
2018-12-22T18:58:52.136Z,9.23
2018-12-22T19:01:20.562Z,9.20
2018-12-22T19:03:48.963Z,9.14
2018-12-22T19:06:17.444Z,9.11
2018-12-22T19:08:45.846Z,9.07
2018-12-22T19:11:15.896Z,9.11
2018-12-22T19:13:44.185Z,9.09
2018-12-22T19:16:12.488Z,9.10
2018-12-22T19:18:40.813Z,9.07
2018-12-22T19:21:09.123Z,9.05
2018-12-22T19:23:37.503Z,9.02
2018-12-22T19:26:05.800Z,9.02
2018-12-22T19:28:34.101Z,8.96
2018-12-22T19:31:02.396Z,8.94
2018-12-22T19:33:30.696Z,8.96
2018-12-22T19:35:58.987Z,8.94
2018-12-22T19:38:27.266Z,8.95
2018-12-22T19:40:55.640Z,8.95
2018-12-22T19:43:23.920Z,8.92
2018-12-22T19:45:52.273Z,8.92
2018-12-22T19:48:20.588Z,8.94
2018-12-22T19:50:48.902Z,8.92
2018-12-22T19:53:17.181Z,8.91
2018-12-22T19:55:45.495Z,8.88
2018-12-22T19:58:13.788Z,8.86
2018-12-22T20:00:42.191Z,8.87
2018-12-22T20:03:10.484Z,8.85
2018-12-22T20:05:38.785Z,8.85
2018-12-22T20:08:07.091Z,8.80
2018-12-22T20:10:35.402Z,8.82
2018-12-22T20:13:03.820Z,8.79
2018-12-22T20:15:32.192Z,8.82
2018-12-22T20:18:00.500Z,8.84
2018-12-22T20:20:29.720Z,8.82
2018-12-22T20:22:58.049Z,8.81
2018-12-22T20:25:26.351Z,8.83
2018-12-22T20:27:54.633Z,8.80
2018-12-22T20:30:22.947Z,8.80
2018-12-22T20:32:51.252Z,8.83
2018-12-22T20:35:19.613Z,8.78
2018-12-22T20:37:47.892Z,8.78
2018-12-22T20:40:16.387Z,8.81
2018-12-22T20:42:44.693Z,8.77
2018-12-22T20:45:13.141Z,8.75
2018-12-22T20:47:41.481Z,8.74
2018-12-22T20:50:09.863Z,8.75
2018-12-22T20:52:38.227Z,8.75
2018-12-22T20:55:06.689Z,8.72
2018-12-22T20:57:35.076Z,8.69
2018-12-22T21:00:04.239Z,8.66
2018-12-22T21:02:32.554Z,8.62
2018-12-22T21:05:00.904Z,8.63
2018-12-22T21:07:29.178Z,8.57
2018-12-22T21:09:57.482Z,8.50
2018-12-22T21:12:25.775Z,8.45
2018-12-22T21:14:54.134Z,8.45
2018-12-22T21:17:22.441Z,8.44
2018-12-22T21:19:50.747Z,8.42
2018-12-22T21:22:19.087Z,8.38
2018-12-22T21:24:47.389Z,8.31
2018-12-22T21:27:15.667Z,8.20
2018-12-22T21:29:43.960Z,8.22
2018-12-22T21:32:12.276Z,8.19
2018-12-22T21:34:40.581Z,8.15
2018-12-22T21:37:09.085Z,8.13
2018-12-22T21:39:37.420Z,8.15
2018-12-22T21:42:05.716Z,8.09
2018-12-22T21:44:34.039Z,8.07
2018-12-22T21:47:02.337Z,8.07
2018-12-22T21:49:30.657Z,8.00
2018-12-22T21:51:59.045Z,7.97
2018-12-22T21:54:27.340Z,7.98
2018-12-22T21:56:55.641Z,7.95
2018-12-22T21:59:23.941Z,7.95
2018-12-22T22:01:52.275Z,7.96
2018-12-22T22:04:20.590Z,7.96
2018-12-22T22:06:48.877Z,7.97
2018-12-22T22:09:19.163Z,7.97
2018-12-22T22:11:47.576Z,8.01
2018-12-22T22:14:15.971Z,8.04
2018-12-22T22:16:44.296Z,8.03
2018-12-22T22:19:12.688Z,8.03
2018-12-22T22:21:40.988Z,8.02
2018-12-22T22:24:09.307Z,8.03
2018-12-22T22:26:37.629Z,8.03
2018-12-22T22:29:05.927Z,8.05
2018-12-22T22:31:34.324Z,8.06
2018-12-22T22:34:02.744Z,8.08
2018-12-22T22:36:31.043Z,8.08
2018-12-22T22:38:59.338Z,8.05
2018-12-22T22:41:27.641Z,8.05
2018-12-22T22:43:55.937Z,8.03
2018-12-22T22:46:24.340Z,8.05
2018-12-22T22:48:52.647Z,8.03
2018-12-22T22:51:21.049Z,8.06
2018-12-22T22:53:49.447Z,8.06
2018-12-22T22:56:17.821Z,8.05
2018-12-22T22:58:46.104Z,8.04
2018-12-22T23:01:14.676Z,8.05
2018-12-22T23:03:43.045Z,8.07
2018-12-22T23:06:11.329Z,8.05
2018-12-22T23:08:39.733Z,8.06
2018-12-22T23:11:08.044Z,8.06
2018-12-22T23:13:36.338Z,8.09
2018-12-22T23:16:04.803Z,8.11
2018-12-22T23:18:33.107Z,8.10
2018-12-22T23:21:01.390Z,8.12
2018-12-22T23:23:29.681Z,8.10
2018-12-22T23:25:58.000Z,8.12
2018-12-22T23:28:26.293Z,8.12
2018-12-22T23:30:54.676Z,8.11
2018-12-22T23:33:22.971Z,8.13
2018-12-22T23:35:51.292Z,8.16
2018-12-22T23:38:19.592Z,8.18
2018-12-22T23:40:47.885Z,8.18
2018-12-22T23:43:16.281Z,8.17
2018-12-22T23:45:44.611Z,8.20
2018-12-22T23:48:12.896Z,8.20
2018-12-22T23:50:41.281Z,8.22
2018-12-22T23:53:09.588Z,8.24
2018-12-22T23:55:38.089Z,8.25
2018-12-22T23:58:06.396Z,8.25
